UAL1689 KIAD-KLAX
Flight info
| Callsign | UAL1689 |
|---|---|
| Flight time | 3h 39m |
| Altitude | 32000 |
| Route | RNLDI4 OTTTO Q80 FAREV RAMRD Q68 LITTR TXK BYP UKW HNKER CNX J74 SJN J231 HIPPI GABBL HLYWD1 |
| Aircraft | B739/M-SDE2E3FGHIRWXY/LB1 |
Departure
| Time | 2026-04-25 18:38 |
|---|---|
| Airport | Washington Dulles International Airport (KIAD) |
Arrival
| Time | 2026-04-25 22:17 |
|---|---|
| Airport | Los Angeles International Airport (KLAX) |
| Time | Latitude | Longitude | Altitude | Speed | Heading |
|---|---|---|---|---|---|
| 2026-04-25 18:15 | 38.94488 | -77.44897 | 296 ft | 0 kts | 359° |
| 2026-04-25 18:27 | 38.94470 | -77.44898 | 298 ft | 4 kts | 1° |
| 2026-04-25 18:28 | 38.94452 | -77.44898 | 298 ft | 4 kts | 352° |
| 2026-04-25 18:28 | 38.94428 | -77.44888 | 299 ft | 4 kts | 321° |
| 2026-04-25 18:28 | 38.94414 | -77.44862 | 299 ft | 3 kts | 272° |
| 2026-04-25 18:29 | 38.94414 | -77.44858 | 300 ft | 1 kts | 270° |
| 2026-04-25 18:30 | 38.94414 | -77.44859 | 300 ft | 0 kts | 270° |
| 2026-04-25 18:32 | 38.94414 | -77.44860 | 300 ft | 1 kts | 270° |
| 2026-04-25 18:32 | 38.94414 | -77.44904 | 296 ft | 10 kts | 270° |
| 2026-04-25 18:32 | 38.94415 | -77.45024 | 296 ft | 14 kts | 271° |
| 2026-04-25 18:33 | 38.94416 | -77.45150 | 296 ft | 14 kts | 271° |
| 2026-04-25 18:33 | 38.94417 | -77.45271 | 296 ft | 13 kts | 270° |
| 2026-04-25 18:33 | 38.94418 | -77.45387 | 296 ft | 13 kts | 270° |
| 2026-04-25 18:33 | 38.94419 | -77.45501 | 296 ft | 13 kts | 270° |
| 2026-04-25 18:34 | 38.94419 | -77.45618 | 296 ft | 13 kts | 270° |
| 2026-04-25 18:34 | 38.94419 | -77.45676 | 296 ft | 0 kts | 259° |
| 2026-04-25 18:34 | 38.94384 | -77.45726 | 297 ft | 14 kts | 190° |
| 2026-04-25 18:34 | 38.94290 | -77.45728 | 297 ft | 13 kts | 180° |
| 2026-04-25 18:35 | 38.94201 | -77.45727 | 296 ft | 13 kts | 179° |
| 2026-04-25 18:35 | 38.94114 | -77.45728 | 297 ft | 12 kts | 180° |
| 2026-04-25 18:35 | 38.94021 | -77.45729 | 296 ft | 15 kts | 181° |
| 2026-04-25 18:35 | 38.93895 | -77.45733 | 296 ft | 21 kts | 180° |
| 2026-04-25 18:36 | 38.93766 | -77.45706 | 296 ft | 17 kts | 137° |
| 2026-04-25 18:36 | 38.93690 | -77.45596 | 296 ft | 16 kts | 129° |
| 2026-04-25 18:36 | 38.93596 | -77.45498 | 297 ft | 18 kts | 180° |
| 2026-04-25 18:36 | 38.93483 | -77.45547 | 295 ft | 17 kts | 200° |
| 2026-04-25 18:37 | 38.93380 | -77.45609 | 296 ft | 13 kts | 231° |
| 2026-04-25 18:37 | 38.93376 | -77.45646 | 294 ft | 0 kts | 285° |
| 2026-04-25 18:37 | 38.93444 | -77.45880 | 296 ft | 62 kts | 291° |
| 2026-04-25 18:37 | 38.93675 | -77.46670 | 302 ft | 125 kts | 291° |
| 2026-04-25 18:38 | 38.94044 | -77.47921 | 306 ft | 172 kts | 291° |
| 2026-04-25 18:38 | 38.94519 | -77.49506 | 450 ft | 201 kts | 292° |
| 2026-04-25 18:38 | 38.95054 | -77.51224 | 952 ft | 212 kts | 293° |
| 2026-04-25 18:38 | 38.95540 | -77.53013 | 1571 ft | 209 kts | 276° |
| 2026-04-25 18:39 | 38.95311 | -77.54836 | 1692 ft | 216 kts | 240° |
| 2026-04-25 18:39 | 38.94529 | -77.56512 | 1919 ft | 220 kts | 236° |
| 2026-04-25 18:39 | 38.93732 | -77.58241 | 2235 ft | 232 kts | 241° |
| 2026-04-25 18:39 | 38.93001 | -77.60151 | 2531 ft | 245 kts | 243° |
| 2026-04-25 18:40 | 38.92305 | -77.62240 | 2596 ft | 271 kts | 247° |
| 2026-04-25 18:40 | 38.91604 | -77.64532 | 3114 ft | 270 kts | 246° |
| 2026-04-25 18:40 | 38.90878 | -77.66785 | 3242 ft | 280 kts | 247° |
| 2026-04-25 18:40 | 38.90165 | -77.69081 | 3880 ft | 273 kts | 248° |
| 2026-04-25 18:41 | 38.89468 | -77.71262 | 4995 ft | 257 kts | 243° |
| 2026-04-25 18:41 | 38.88491 | -77.73170 | 5761 ft | 259 kts | 234° |
| 2026-04-25 18:41 | 38.87396 | -77.75033 | 6362 ft | 263 kts | 233° |
| 2026-04-25 18:41 | 38.86303 | -77.76914 | 7023 ft | 263 kts | 237° |
| 2026-04-25 18:42 | 38.85721 | -77.79112 | 7623 ft | 265 kts | 267° |
| 2026-04-25 18:42 | 38.85719 | -77.80680 | 8067 ft | 266 kts | 268° |
| 2026-04-25 18:42 | 38.85738 | -77.83874 | 8950 ft | 268 kts | 268° |
| 2026-04-25 18:42 | 38.85743 | -77.86254 | 9576 ft | 271 kts | 268° |
| 2026-04-25 18:43 | 38.85740 | -77.88669 | 10230 ft | 272 kts | 267° |
| 2026-04-25 18:43 | 38.85727 | -77.91169 | 10491 ft | 288 kts | 267° |
| 2026-04-25 18:43 | 38.85706 | -77.93835 | 10634 ft | 308 kts | 267° |
| 2026-04-25 18:43 | 38.85680 | -77.96662 | 10790 ft | 326 kts | 267° |
| 2026-04-25 18:44 | 38.85649 | -77.99653 | 10914 ft | 343 kts | 267° |
| 2026-04-25 18:44 | 38.85615 | -78.02786 | 11108 ft | 357 kts | 268° |
| 2026-04-25 18:44 | 38.85580 | -78.05997 | 11580 ft | 362 kts | 268° |
| 2026-04-25 18:44 | 38.85543 | -78.09238 | 12131 ft | 364 kts | 268° |
| 2026-04-25 18:45 | 38.85504 | -78.12498 | 12670 ft | 366 kts | 268° |
| 2026-04-25 18:45 | 38.85464 | -78.15730 | 13218 ft | 368 kts | 268° |
| 2026-04-25 18:45 | 38.85421 | -78.19033 | 13732 ft | 371 kts | 268° |
| 2026-04-25 18:45 | 38.85387 | -78.22353 | 14175 ft | 373 kts | 269° |
| 2026-04-25 18:46 | 38.85388 | -78.25698 | 14623 ft | 376 kts | 269° |
| 2026-04-25 18:46 | 38.85397 | -78.29068 | 15068 ft | 378 kts | 269° |
| 2026-04-25 18:46 | 38.85402 | -78.32454 | 15502 ft | 381 kts | 269° |
| 2026-04-25 18:46 | 38.85399 | -78.35862 | 15927 ft | 383 kts | 268° |
| 2026-04-25 18:47 | 38.85181 | -78.39277 | 16312 ft | 386 kts | 259° |
| 2026-04-25 18:47 | 38.84627 | -78.42652 | 16747 ft | 388 kts | 258° |
| 2026-04-25 18:47 | 38.84050 | -78.45995 | 17155 ft | 390 kts | 258° |
| 2026-04-25 18:47 | 38.83462 | -78.49406 | 17550 ft | 392 kts | 258° |
| 2026-04-25 18:48 | 38.82876 | -78.52844 | 17949 ft | 395 kts | 258° |
| 2026-04-25 18:48 | 38.82293 | -78.56297 | 18322 ft | 397 kts | 258° |
| 2026-04-25 18:48 | 38.81712 | -78.59771 | 18650 ft | 400 kts | 258° |
| 2026-04-25 18:48 | 38.81129 | -78.63268 | 18997 ft | 401 kts | 258° |
| 2026-04-25 18:49 | 38.80544 | -78.66777 | 19355 ft | 402 kts | 258° |
| 2026-04-25 18:49 | 38.79957 | -78.70298 | 19675 ft | 404 kts | 258° |
| 2026-04-25 18:49 | 38.79374 | -78.73793 | 19984 ft | 407 kts | 258° |
| 2026-04-25 18:49 | 38.78781 | -78.77342 | 20329 ft | 408 kts | 258° |
| 2026-04-25 18:50 | 38.78182 | -78.80911 | 20685 ft | 410 kts | 258° |
| 2026-04-25 18:50 | 38.77580 | -78.84497 | 21042 ft | 412 kts | 258° |
| 2026-04-25 18:50 | 38.76975 | -78.88097 | 21384 ft | 414 kts | 258° |
| 2026-04-25 18:50 | 38.76365 | -78.91713 | 21707 ft | 416 kts | 258° |
| 2026-04-25 18:51 | 38.75750 | -78.95353 | 22036 ft | 418 kts | 258° |
| 2026-04-25 18:51 | 38.75341 | -78.97768 | 22266 ft | 419 kts | 257° |
| 2026-04-25 18:51 | 38.74510 | -79.02668 | 22673 ft | 422 kts | 257° |
| 2026-04-25 18:51 | 38.73886 | -79.06344 | 22952 ft | 424 kts | 257° |
| 2026-04-25 18:52 | 38.73255 | -79.10045 | 23187 ft | 427 kts | 257° |
| 2026-04-25 18:52 | 38.72626 | -79.13735 | 23314 ft | 432 kts | 257° |
| 2026-04-25 18:52 | 38.71979 | -79.17521 | 23363 ft | 438 kts | 257° |
| 2026-04-25 18:52 | 38.71324 | -79.21346 | 23512 ft | 441 kts | 257° |
| 2026-04-25 18:53 | 38.70665 | -79.25190 | 23751 ft | 442 kts | 257° |
| 2026-04-25 18:53 | 38.70025 | -79.29030 | 24066 ft | 441 kts | 257° |
| 2026-04-25 18:53 | 38.69399 | -79.32874 | 24381 ft | 442 kts | 257° |
| 2026-04-25 18:53 | 38.68773 | -79.36731 | 24633 ft | 443 kts | 257° |
| 2026-04-25 18:54 | 38.67512 | -79.44466 | 25069 ft | 444 kts | 257° |
| 2026-04-25 18:54 | 38.66876 | -79.48340 | 25336 ft | 444 kts | 257° |
| 2026-04-25 18:54 | 38.66235 | -79.52218 | 25683 ft | 442 kts | 257° |
| 2026-04-25 18:55 | 38.65602 | -79.56045 | 26129 ft | 437 kts | 257° |
| 2026-04-25 18:55 | 38.64973 | -79.59843 | 26501 ft | 435 kts | 257° |
| 2026-04-25 18:55 | 38.64352 | -79.63582 | 26801 ft | 435 kts | 257° |
| 2026-04-25 18:55 | 38.63715 | -79.67411 | 27138 ft | 434 kts | 257° |
| 2026-04-25 18:56 | 38.63089 | -79.71122 | 27529 ft | 431 kts | 256° |
| 2026-04-25 18:56 | 38.62425 | -79.74854 | 27917 ft | 429 kts | 256° |
| 2026-04-25 18:56 | 38.61745 | -79.78575 | 28274 ft | 428 kts | 256° |
| 2026-04-25 18:56 | 38.61066 | -79.82272 | 28693 ft | 425 kts | 255° |
| 2026-04-25 18:57 | 38.60391 | -79.85945 | 29139 ft | 422 kts | 255° |
| 2026-04-25 18:57 | 38.59725 | -79.89589 | 29572 ft | 420 kts | 255° |
| 2026-04-25 18:57 | 38.59061 | -79.93220 | 29974 ft | 417 kts | 255° |
| 2026-04-25 18:57 | 38.58847 | -79.94394 | 30089 ft | 417 kts | 255° |
| 2026-04-25 18:58 | 38.57754 | -80.00372 | 30629 ft | 414 kts | 255° |
| 2026-04-25 18:58 | 38.56450 | -80.07491 | 31298 ft | 409 kts | 255° |
| 2026-04-25 18:58 | 38.55801 | -80.11024 | 31595 ft | 407 kts | 255° |
| 2026-04-25 18:59 | 38.54502 | -80.18067 | 31888 ft | 409 kts | 255° |
| 2026-04-25 18:59 | 38.53191 | -80.25159 | 31918 ft | 413 kts | 255° |
| 2026-04-25 19:00 | 38.51194 | -80.35918 | 31898 ft | 416 kts | 255° |
| 2026-04-25 19:01 | 38.49221 | -80.46513 | 31913 ft | 407 kts | 255° |
| 2026-04-25 19:01 | 38.47904 | -80.53538 | 31926 ft | 406 kts | 255° |
| 2026-04-25 19:02 | 38.45915 | -80.64107 | 31914 ft | 410 kts | 255° |
| 2026-04-25 19:03 | 38.44356 | -80.72355 | 31922 ft | 413 kts | 255° |
| 2026-04-25 19:03 | 38.42539 | -80.81927 | 31914 ft | 417 kts | 255° |
| 2026-04-25 19:04 | 38.40473 | -80.92755 | 31911 ft | 421 kts | 254° |
| 2026-04-25 19:05 | 38.37694 | -81.07237 | 31905 ft | 423 kts | 254° |
| 2026-04-25 19:06 | 38.36145 | -81.14455 | 31903 ft | 421 kts | 251° |
| 2026-04-25 19:06 | 38.33497 | -81.25102 | 31905 ft | 419 kts | 251° |
| 2026-04-25 19:07 | 38.30884 | -81.35743 | 31897 ft | 419 kts | 250° |
| 2026-04-25 19:08 | 38.28292 | -81.46331 | 31901 ft | 419 kts | 250° |
| 2026-04-25 19:09 | 38.25397 | -81.58166 | 31914 ft | 420 kts | 250° |
| 2026-04-25 19:10 | 38.22205 | -81.71176 | 31916 ft | 421 kts | 250° |
| 2026-04-25 19:10 | 38.20319 | -81.78191 | 31904 ft | 422 kts | 248° |
| 2026-04-25 19:11 | 38.18318 | -81.85198 | 31913 ft | 422 kts | 248° |
| 2026-04-25 19:11 | 38.16321 | -81.92223 | 31914 ft | 423 kts | 248° |
| 2026-04-25 19:12 | 38.14334 | -81.99269 | 31898 ft | 424 kts | 248° |
| 2026-04-25 19:12 | 38.12343 | -82.06334 | 31907 ft | 424 kts | 248° |
| 2026-04-25 19:13 | 38.10352 | -82.13380 | 31905 ft | 424 kts | 248° |
| 2026-04-25 19:13 | 38.08352 | -82.20439 | 31902 ft | 424 kts | 248° |
| 2026-04-25 19:14 | 38.06365 | -82.27435 | 31908 ft | 424 kts | 248° |
| 2026-04-25 19:14 | 38.04686 | -82.33330 | 31897 ft | 424 kts | 248° |
| 2026-04-25 19:15 | 38.02354 | -82.41498 | 31934 ft | 423 kts | 247° |
| 2026-04-25 19:15 | 38.00346 | -82.48514 | 31907 ft | 422 kts | 247° |
| 2026-04-25 19:16 | 37.98682 | -82.54314 | 31899 ft | 420 kts | 247° |
| 2026-04-25 19:16 | 37.96351 | -82.62372 | 31929 ft | 418 kts | 247° |
| 2026-04-25 19:17 | 37.94345 | -82.69277 | 31932 ft | 418 kts | 247° |
| 2026-04-25 19:17 | 37.92660 | -82.75070 | 31935 ft | 419 kts | 247° |
| 2026-04-25 19:18 | 37.90642 | -82.81997 | 31944 ft | 420 kts | 247° |
| 2026-04-25 19:18 | 37.88613 | -82.88907 | 31925 ft | 421 kts | 246° |
| 2026-04-25 19:19 | 37.86545 | -82.95857 | 31923 ft | 422 kts | 246° |
| 2026-04-25 19:19 | 37.84442 | -83.02779 | 31906 ft | 422 kts | 246° |
| 2026-04-25 19:20 | 37.82333 | -83.09701 | 31918 ft | 421 kts | 246° |
| 2026-04-25 19:20 | 37.80239 | -83.16576 | 31937 ft | 421 kts | 246° |
| 2026-04-25 19:21 | 37.78129 | -83.23491 | 31934 ft | 421 kts | 246° |
| 2026-04-25 19:21 | 37.75075 | -83.33905 | 31933 ft | 421 kts | 247° |
| 2026-04-25 19:22 | 37.73079 | -83.40892 | 31927 ft | 422 kts | 247° |
| 2026-04-25 19:23 | 37.70064 | -83.51353 | 31906 ft | 422 kts | 247° |
| 2026-04-25 19:23 | 37.67026 | -83.61814 | 31922 ft | 424 kts | 248° |
| 2026-04-25 19:24 | 37.65001 | -83.68765 | 31911 ft | 425 kts | 248° |
| 2026-04-25 19:25 | 37.60912 | -83.82748 | 31887 ft | 416 kts | 248° |
| 2026-04-25 19:25 | 37.58927 | -83.89512 | 31915 ft | 412 kts | 248° |
| 2026-04-25 19:26 | 37.56918 | -83.96333 | 31929 ft | 418 kts | 249° |
| 2026-04-25 19:26 | 37.54894 | -84.03193 | 31930 ft | 422 kts | 249° |
| 2026-04-25 19:27 | 37.53177 | -84.08998 | 31929 ft | 427 kts | 249° |
| 2026-04-25 19:27 | 37.50739 | -84.17228 | 31949 ft | 431 kts | 248° |
| 2026-04-25 19:28 | 37.48629 | -84.24327 | 31943 ft | 432 kts | 248° |
| 2026-04-25 19:28 | 37.46516 | -84.31370 | 31955 ft | 433 kts | 251° |
| 2026-04-25 19:29 | 37.44730 | -84.38609 | 31913 ft | 433 kts | 253° |
| 2026-04-25 19:29 | 37.43041 | -84.45880 | 31923 ft | 432 kts | 253° |
| 2026-04-25 19:30 | 37.41322 | -84.53117 | 31927 ft | 431 kts | 253° |
| 2026-04-25 19:30 | 37.39577 | -84.60315 | 31935 ft | 430 kts | 252° |
| 2026-04-25 19:31 | 37.37818 | -84.67503 | 31943 ft | 430 kts | 253° |
| 2026-04-25 19:31 | 37.36066 | -84.74633 | 31930 ft | 429 kts | 253° |
| 2026-04-25 19:32 | 37.34301 | -84.81795 | 31930 ft | 428 kts | 253° |
| 2026-04-25 19:32 | 37.32836 | -84.87728 | 31928 ft | 428 kts | 253° |
| 2026-04-25 19:33 | 37.30773 | -84.96063 | 31933 ft | 427 kts | 253° |
| 2026-04-25 19:33 | 37.29004 | -85.03182 | 31941 ft | 427 kts | 253° |
| 2026-04-25 19:34 | 37.27232 | -85.10296 | 31960 ft | 426 kts | 253° |
| 2026-04-25 19:34 | 37.25467 | -85.17363 | 31908 ft | 426 kts | 253° |
| 2026-04-25 19:35 | 37.23686 | -85.24471 | 31906 ft | 426 kts | 253° |
| 2026-04-25 19:35 | 37.21903 | -85.31567 | 31904 ft | 426 kts | 253° |
| 2026-04-25 19:36 | 37.20119 | -85.38649 | 31908 ft | 426 kts | 253° |
| 2026-04-25 19:36 | 37.18340 | -85.45688 | 31913 ft | 426 kts | 253° |
| 2026-04-25 19:37 | 37.16548 | -85.52759 | 31902 ft | 426 kts | 253° |
| 2026-04-25 19:37 | 37.14751 | -85.59833 | 31901 ft | 425 kts | 253° |
| 2026-04-25 19:38 | 37.12955 | -85.66882 | 31907 ft | 424 kts | 253° |
| 2026-04-25 19:38 | 37.11155 | -85.73925 | 31918 ft | 424 kts | 253° |
| 2026-04-25 19:39 | 37.09353 | -85.80959 | 31922 ft | 423 kts | 253° |
| 2026-04-25 19:39 | 37.07562 | -85.87927 | 31923 ft | 423 kts | 253° |
| 2026-04-25 19:40 | 37.05756 | -85.94936 | 31927 ft | 423 kts | 253° |
| 2026-04-25 19:40 | 37.03948 | -86.01936 | 31926 ft | 423 kts | 253° |
| 2026-04-25 19:41 | 37.02135 | -86.08935 | 31930 ft | 423 kts | 253° |
| 2026-04-25 19:41 | 37.00919 | -86.13617 | 31918 ft | 423 kts | 253° |
| 2026-04-25 19:42 | 36.98496 | -86.22926 | 31918 ft | 423 kts | 253° |
| 2026-04-25 19:42 | 36.96679 | -86.29882 | 31922 ft | 422 kts | 253° |
| 2026-04-25 19:43 | 36.94851 | -86.36866 | 31928 ft | 422 kts | 253° |
| 2026-04-25 19:43 | 36.93016 | -86.43843 | 31917 ft | 421 kts | 253° |
| 2026-04-25 19:44 | 36.90772 | -86.50558 | 31927 ft | 421 kts | 248° |
| 2026-04-25 19:44 | 36.88317 | -86.57212 | 31928 ft | 421 kts | 248° |
| 2026-04-25 19:45 | 36.85880 | -86.63862 | 31915 ft | 420 kts | 248° |
| 2026-04-25 19:45 | 36.83470 | -86.70511 | 31903 ft | 420 kts | 249° |
| 2026-04-25 19:46 | 36.81067 | -86.77158 | 31894 ft | 419 kts | 249° |
| 2026-04-25 19:46 | 36.78666 | -86.83790 | 31888 ft | 419 kts | 249° |
| 2026-04-25 19:47 | 36.76264 | -86.90409 | 31882 ft | 419 kts | 248° |
| 2026-04-25 19:47 | 36.73875 | -86.96977 | 31891 ft | 419 kts | 249° |
| 2026-04-25 19:48 | 36.71463 | -87.03595 | 31886 ft | 419 kts | 249° |
| 2026-04-25 19:48 | 36.69051 | -87.10196 | 31881 ft | 418 kts | 249° |
| 2026-04-25 19:49 | 36.67437 | -87.14607 | 31885 ft | 418 kts | 249° |
| 2026-04-25 19:49 | 36.64224 | -87.23372 | 31909 ft | 417 kts | 249° |
| 2026-04-25 19:50 | 36.60608 | -87.33205 | 31917 ft | 417 kts | 248° |
| 2026-04-25 19:51 | 36.58188 | -87.39764 | 31916 ft | 417 kts | 248° |
| 2026-04-25 19:51 | 36.55766 | -87.46322 | 31904 ft | 417 kts | 248° |
| 2026-04-25 19:52 | 36.53342 | -87.52871 | 31907 ft | 417 kts | 248° |
| 2026-04-25 19:52 | 36.50913 | -87.59423 | 31913 ft | 417 kts | 248° |
| 2026-04-25 19:53 | 36.48500 | -87.65918 | 31919 ft | 417 kts | 248° |
| 2026-04-25 19:53 | 36.46069 | -87.72446 | 31920 ft | 416 kts | 248° |
| 2026-04-25 19:54 | 36.43633 | -87.78975 | 31916 ft | 415 kts | 248° |
| 2026-04-25 19:54 | 36.41198 | -87.85487 | 31906 ft | 415 kts | 248° |
| 2026-04-25 19:55 | 36.38758 | -87.92001 | 31909 ft | 415 kts | 248° |
| 2026-04-25 19:55 | 36.36320 | -87.98496 | 31907 ft | 415 kts | 248° |
| 2026-04-25 19:56 | 36.33896 | -88.04938 | 31902 ft | 415 kts | 248° |
| 2026-04-25 19:56 | 36.31450 | -88.11426 | 31903 ft | 415 kts | 248° |
| 2026-04-25 19:57 | 36.29002 | -88.17908 | 31906 ft | 415 kts | 248° |
| 2026-04-25 19:57 | 36.26550 | -88.24384 | 31908 ft | 414 kts | 248° |
| 2026-04-25 19:58 | 36.24098 | -88.30851 | 31905 ft | 414 kts | 248° |
| 2026-04-25 19:58 | 36.21646 | -88.37303 | 31901 ft | 414 kts | 248° |
| 2026-04-25 19:59 | 36.19190 | -88.43753 | 31895 ft | 414 kts | 248° |
| 2026-04-25 19:59 | 36.16732 | -88.50199 | 31902 ft | 414 kts | 248° |
| 2026-04-25 20:00 | 36.14278 | -88.56616 | 31899 ft | 415 kts | 248° |
| 2026-04-25 20:00 | 36.11802 | -88.63066 | 31897 ft | 415 kts | 248° |
| 2026-04-25 20:01 | 36.08074 | -88.72750 | 31894 ft | 416 kts | 248° |
| 2026-04-25 20:01 | 36.05585 | -88.79203 | 31894 ft | 416 kts | 248° |
| 2026-04-25 20:02 | 36.03092 | -88.85658 | 31880 ft | 416 kts | 248° |
| 2026-04-25 20:02 | 36.00609 | -88.92071 | 31887 ft | 416 kts | 248° |
| 2026-04-25 20:03 | 35.98105 | -88.98526 | 31881 ft | 416 kts | 248° |
| 2026-04-25 20:03 | 35.95600 | -89.04970 | 31886 ft | 416 kts | 248° |
| 2026-04-25 20:04 | 35.93104 | -89.11381 | 31896 ft | 416 kts | 248° |
| 2026-04-25 20:04 | 35.90591 | -89.17820 | 31902 ft | 416 kts | 248° |
| 2026-04-25 20:05 | 35.88074 | -89.24256 | 31911 ft | 416 kts | 248° |
| 2026-04-25 20:05 | 35.85552 | -89.30694 | 31884 ft | 416 kts | 248° |
| 2026-04-25 20:06 | 35.83455 | -89.36037 | 31888 ft | 417 kts | 248° |
| 2026-04-25 20:06 | 35.80927 | -89.42465 | 31882 ft | 416 kts | 247° |
| 2026-04-25 20:07 | 35.78394 | -89.48893 | 31885 ft | 417 kts | 247° |
| 2026-04-25 20:07 | 35.75860 | -89.55311 | 31884 ft | 417 kts | 247° |
| 2026-04-25 20:08 | 35.73326 | -89.61718 | 31886 ft | 416 kts | 247° |
| 2026-04-25 20:08 | 35.70786 | -89.68127 | 31891 ft | 417 kts | 247° |
| 2026-04-25 20:09 | 35.68237 | -89.74546 | 31886 ft | 417 kts | 247° |
| 2026-04-25 20:09 | 35.65697 | -89.80928 | 31892 ft | 418 kts | 247° |
| 2026-04-25 20:10 | 35.63136 | -89.87351 | 31891 ft | 419 kts | 247° |
| 2026-04-25 20:10 | 35.60562 | -89.93794 | 31896 ft | 419 kts | 247° |
| 2026-04-25 20:11 | 35.57986 | -90.00228 | 31877 ft | 419 kts | 247° |
| 2026-04-25 20:11 | 35.55412 | -90.06647 | 31884 ft | 419 kts | 247° |
| 2026-04-25 20:12 | 35.52835 | -90.13059 | 31886 ft | 418 kts | 247° |
| 2026-04-25 20:12 | 35.50691 | -90.18385 | 31885 ft | 418 kts | 247° |
| 2026-04-25 20:13 | 35.47692 | -90.25819 | 31879 ft | 418 kts | 247° |
| 2026-04-25 20:13 | 35.45107 | -90.32213 | 31891 ft | 418 kts | 247° |
| 2026-04-25 20:14 | 35.42520 | -90.38602 | 31888 ft | 418 kts | 247° |
| 2026-04-25 20:14 | 35.39924 | -90.44999 | 31892 ft | 418 kts | 248° |
| 2026-04-25 20:15 | 35.37328 | -90.51385 | 31899 ft | 419 kts | 248° |
| 2026-04-25 20:15 | 35.34722 | -90.57783 | 31888 ft | 419 kts | 247° |
| 2026-04-25 20:16 | 35.32132 | -90.64127 | 31898 ft | 419 kts | 247° |
| 2026-04-25 20:16 | 35.29522 | -90.70509 | 31898 ft | 419 kts | 247° |
| 2026-04-25 20:17 | 35.26909 | -90.76885 | 31909 ft | 418 kts | 248° |
| 2026-04-25 20:17 | 35.24296 | -90.83249 | 31870 ft | 418 kts | 248° |
| 2026-04-25 20:18 | 35.21686 | -90.89597 | 31893 ft | 418 kts | 248° |
| 2026-04-25 20:18 | 35.19068 | -90.95951 | 31914 ft | 418 kts | 248° |
| 2026-04-25 20:19 | 35.16458 | -91.02273 | 31913 ft | 419 kts | 248° |
| 2026-04-25 20:19 | 35.13822 | -91.08644 | 31915 ft | 420 kts | 248° |
| 2026-04-25 20:20 | 35.11178 | -91.15024 | 31916 ft | 421 kts | 248° |
| 2026-04-25 20:20 | 35.08526 | -91.21410 | 31915 ft | 421 kts | 248° |
| 2026-04-25 20:21 | 35.05872 | -91.27787 | 31917 ft | 420 kts | 248° |
| 2026-04-25 20:21 | 35.03237 | -91.34108 | 31918 ft | 420 kts | 248° |
| 2026-04-25 20:22 | 35.01014 | -91.39432 | 31921 ft | 420 kts | 248° |
| 2026-04-25 20:22 | 34.97934 | -91.46795 | 31888 ft | 419 kts | 248° |
| 2026-04-25 20:23 | 34.95279 | -91.53128 | 31916 ft | 420 kts | 248° |
| 2026-04-25 20:23 | 34.92618 | -91.59463 | 31924 ft | 419 kts | 248° |
| 2026-04-25 20:24 | 34.89957 | -91.65788 | 31930 ft | 419 kts | 248° |
| 2026-04-25 20:24 | 34.87317 | -91.72051 | 31926 ft | 418 kts | 248° |
| 2026-04-25 20:25 | 34.84654 | -91.78354 | 31930 ft | 418 kts | 248° |
| 2026-04-25 20:25 | 34.81989 | -91.84654 | 31927 ft | 418 kts | 248° |
| 2026-04-25 20:26 | 34.79324 | -91.90939 | 31926 ft | 418 kts | 248° |
| 2026-04-25 20:26 | 34.76671 | -91.97188 | 31929 ft | 417 kts | 248° |
| 2026-04-25 20:27 | 34.74003 | -92.03459 | 31927 ft | 417 kts | 248° |
| 2026-04-25 20:27 | 34.71334 | -92.09724 | 31902 ft | 417 kts | 248° |
| 2026-04-25 20:28 | 34.68663 | -92.15979 | 31928 ft | 418 kts | 248° |
| 2026-04-25 20:28 | 34.65550 | -92.21960 | 31934 ft | 425 kts | 240° |
| 2026-04-25 20:29 | 34.62023 | -92.27740 | 31924 ft | 426 kts | 240° |
| 2026-04-25 20:29 | 34.58494 | -92.33527 | 31910 ft | 427 kts | 240° |
| 2026-04-25 20:30 | 34.54976 | -92.39339 | 31904 ft | 427 kts | 240° |
| 2026-04-25 20:30 | 34.51468 | -92.45152 | 31906 ft | 427 kts | 240° |
| 2026-04-25 20:31 | 34.47966 | -92.50952 | 31907 ft | 427 kts | 240° |
| 2026-04-25 20:31 | 34.44454 | -92.56760 | 31888 ft | 427 kts | 240° |
| 2026-04-25 20:32 | 34.40962 | -92.62523 | 31899 ft | 427 kts | 239° |
| 2026-04-25 20:32 | 34.37446 | -92.68319 | 31896 ft | 427 kts | 239° |
| 2026-04-25 20:33 | 34.33924 | -92.74113 | 31906 ft | 427 kts | 239° |
| 2026-04-25 20:33 | 34.31000 | -92.78916 | 31903 ft | 427 kts | 239° |
| 2026-04-25 20:34 | 34.26880 | -92.85673 | 31898 ft | 427 kts | 239° |
| 2026-04-25 20:34 | 34.23348 | -92.91456 | 31900 ft | 427 kts | 239° |
| 2026-04-25 20:35 | 34.19830 | -92.97206 | 31895 ft | 427 kts | 239° |
| 2026-04-25 20:35 | 34.16297 | -93.02972 | 31887 ft | 427 kts | 240° |
| 2026-04-25 20:36 | 34.12764 | -93.08729 | 31888 ft | 426 kts | 240° |
| 2026-04-25 20:36 | 34.09235 | -93.14470 | 31899 ft | 426 kts | 240° |
| 2026-04-25 20:37 | 34.05703 | -93.20208 | 31900 ft | 426 kts | 240° |
| 2026-04-25 20:37 | 34.02189 | -93.25907 | 31891 ft | 426 kts | 240° |
| 2026-04-25 20:38 | 33.98654 | -93.31631 | 31892 ft | 426 kts | 240° |
| 2026-04-25 20:38 | 33.95108 | -93.37364 | 31886 ft | 426 kts | 240° |
| 2026-04-25 20:39 | 33.91581 | -93.43057 | 31885 ft | 427 kts | 240° |
| 2026-04-25 20:39 | 33.89198 | -93.46902 | 32006 ft | 430 kts | 240° |
| 2026-04-25 20:40 | 33.86221 | -93.51694 | 32406 ft | 428 kts | 240° |
| 2026-04-25 20:40 | 33.84438 | -93.54558 | 32705 ft | 426 kts | 240° |
| 2026-04-25 20:40 | 33.82664 | -93.57405 | 33011 ft | 424 kts | 240° |
| 2026-04-25 20:40 | 33.80899 | -93.60239 | 33265 ft | 423 kts | 240° |
| 2026-04-25 20:41 | 33.79133 | -93.63073 | 33485 ft | 422 kts | 240° |
| 2026-04-25 20:41 | 33.77372 | -93.65897 | 33701 ft | 422 kts | 240° |
| 2026-04-25 20:41 | 33.75615 | -93.68713 | 33878 ft | 420 kts | 240° |
| 2026-04-25 20:41 | 33.73857 | -93.71529 | 33857 ft | 422 kts | 240° |
| 2026-04-25 20:42 | 33.70329 | -93.77174 | 33871 ft | 422 kts | 240° |
| 2026-04-25 20:42 | 33.66825 | -93.82765 | 33859 ft | 421 kts | 240° |
| 2026-04-25 20:43 | 33.63309 | -93.88371 | 33866 ft | 419 kts | 240° |
| 2026-04-25 20:43 | 33.59802 | -93.93955 | 33872 ft | 418 kts | 240° |
| 2026-04-25 20:44 | 33.56303 | -93.99519 | 33875 ft | 417 kts | 240° |
| 2026-04-25 20:44 | 33.53081 | -94.05234 | 33869 ft | 405 kts | 253° |
| 2026-04-25 20:45 | 33.51577 | -94.11593 | 33877 ft | 396 kts | 266° |
| 2026-04-25 20:45 | 33.51541 | -94.18135 | 33875 ft | 393 kts | 274° |
| 2026-04-25 20:46 | 33.51694 | -94.24685 | 33870 ft | 394 kts | 274° |
| 2026-04-25 20:46 | 33.51828 | -94.31259 | 33862 ft | 394 kts | 273° |
| 2026-04-25 20:47 | 33.51947 | -94.37833 | 33857 ft | 395 kts | 273° |
| 2026-04-25 20:47 | 33.52057 | -94.44373 | 33847 ft | 395 kts | 273° |
| 2026-04-25 20:48 | 33.52163 | -94.50958 | 33848 ft | 395 kts | 273° |
| 2026-04-25 20:48 | 33.52265 | -94.57532 | 33852 ft | 395 kts | 273° |
| 2026-04-25 20:49 | 33.52364 | -94.64118 | 33842 ft | 394 kts | 274° |
| 2026-04-25 20:49 | 33.52459 | -94.70676 | 33839 ft | 393 kts | 274° |
| 2026-04-25 20:50 | 33.52561 | -94.78024 | 33832 ft | 392 kts | 273° |
| 2026-04-25 20:50 | 33.52790 | -94.95616 | 33799 ft | 391 kts | 273° |
| 2026-04-25 20:51 | 33.53085 | -95.21834 | 33841 ft | 393 kts | 273° |
| 2026-04-25 20:51 | 33.53324 | -95.48087 | 33841 ft | 393 kts | 273° |
| 2026-04-25 20:52 | 33.53450 | -95.65451 | 33797 ft | 392 kts | 273° |
| 2026-04-25 20:52 | 33.53633 | -96.00296 | 33792 ft | 391 kts | 272° |
| 2026-04-25 20:53 | 33.53710 | -96.26397 | 33758 ft | 391 kts | 273° |
| 2026-04-25 20:53 | 33.53811 | -96.48060 | 33614 ft | 381 kts | 273° |
| 2026-04-25 20:54 | 33.53856 | -96.60726 | 33722 ft | 380 kts | 273° |
| 2026-04-25 20:54 | 33.53890 | -96.73534 | 33792 ft | 389 kts | 273° |
| 2026-04-25 20:54 | 33.53906 | -97.00043 | 33783 ft | 403 kts | 272° |
| 2026-04-25 20:55 | 33.53863 | -97.26921 | 33757 ft | 399 kts | 272° |
| 2026-04-25 20:55 | 33.53768 | -97.53215 | 33739 ft | 390 kts | 272° |
| 2026-04-25 20:56 | 33.53623 | -97.78943 | 33728 ft | 387 kts | 271° |
| 2026-04-25 20:56 | 33.58750 | -98.29788 | 33751 ft | 395 kts | 278° |
| 2026-04-25 20:57 | 33.63735 | -98.82463 | 33680 ft | 396 kts | 277° |
| 2026-04-25 20:57 | 33.68856 | -99.34948 | 33653 ft | 395 kts | 277° |
| 2026-04-25 20:58 | 33.73606 | -99.87319 | 33651 ft | 393 kts | 276° |
| 2026-04-25 20:58 | 33.78172 | -100.39533 | 33681 ft | 392 kts | 277° |
| 2026-04-25 20:59 | 33.85202 | -100.90880 | 33678 ft | 391 kts | 278° |
| 2026-04-25 20:59 | 33.91580 | -101.42596 | 33715 ft | 388 kts | 278° |
| 2026-04-25 21:00 | 33.96853 | -101.85433 | 33760 ft | 389 kts | 277° |
| 2026-04-25 21:01 | 34.06882 | -102.71524 | 33679 ft | 387 kts | 277° |
| 2026-04-25 21:01 | 34.12613 | -103.23214 | 33740 ft | 389 kts | 276° |
| 2026-04-25 21:02 | 34.18156 | -103.75112 | 33620 ft | 389 kts | 276° |
| 2026-04-25 21:02 | 34.23416 | -104.26687 | 33641 ft | 388 kts | 275° |
| 2026-04-25 21:03 | 34.25321 | -104.45865 | 33621 ft | 386 kts | 275° |
| 2026-04-25 21:03 | 34.25948 | -104.52311 | 33637 ft | 385 kts | 275° |
| 2026-04-25 21:03 | 34.26263 | -104.55543 | 33482 ft | 388 kts | 275° |
| 2026-04-25 21:04 | 34.26578 | -104.58794 | 33212 ft | 390 kts | 275° |
| 2026-04-25 21:04 | 34.26894 | -104.62047 | 32942 ft | 388 kts | 275° |
| 2026-04-25 21:04 | 34.27209 | -104.65291 | 32702 ft | 389 kts | 275° |
| 2026-04-25 21:04 | 34.27523 | -104.68546 | 32447 ft | 391 kts | 275° |
| 2026-04-25 21:05 | 34.27839 | -104.71823 | 32188 ft | 393 kts | 275° |
| 2026-04-25 21:05 | 34.28152 | -104.75074 | 31937 ft | 393 kts | 275° |
| 2026-04-25 21:05 | 34.28466 | -104.78345 | 31712 ft | 389 kts | 275° |
| 2026-04-25 21:05 | 34.28778 | -104.81602 | 31494 ft | 391 kts | 275° |
| 2026-04-25 21:06 | 34.29090 | -104.84878 | 31253 ft | 392 kts | 275° |
| 2026-04-25 21:06 | 34.29402 | -104.88167 | 31011 ft | 394 kts | 275° |
| 2026-04-25 21:06 | 34.29716 | -104.91472 | 30767 ft | 396 kts | 275° |
| 2026-04-25 21:06 | 34.29923 | -104.93663 | 30620 ft | 397 kts | 275° |
| 2026-04-25 21:07 | 34.30343 | -104.98122 | 30303 ft | 399 kts | 275° |
| 2026-04-25 21:07 | 34.30658 | -105.01466 | 30065 ft | 401 kts | 275° |
| 2026-04-25 21:07 | 34.30972 | -105.04825 | 29831 ft | 403 kts | 275° |
| 2026-04-25 21:08 | 34.31606 | -105.11617 | 29708 ft | 409 kts | 275° |
| 2026-04-25 21:08 | 34.32235 | -105.18396 | 29695 ft | 407 kts | 275° |
| 2026-04-25 21:09 | 34.33175 | -105.28613 | 29602 ft | 410 kts | 275° |
| 2026-04-25 21:09 | 34.33489 | -105.32049 | 29306 ft | 410 kts | 275° |
| 2026-04-25 21:09 | 34.33801 | -105.35469 | 29031 ft | 407 kts | 275° |
| 2026-04-25 21:10 | 34.34111 | -105.38881 | 28783 ft | 409 kts | 275° |
| 2026-04-25 21:10 | 34.34422 | -105.42317 | 28515 ft | 411 kts | 275° |
| 2026-04-25 21:10 | 34.34730 | -105.45729 | 28256 ft | 413 kts | 275° |
| 2026-04-25 21:10 | 34.35041 | -105.49188 | 27994 ft | 414 kts | 275° |
| 2026-04-25 21:11 | 34.35353 | -105.52658 | 27804 ft | 414 kts | 275° |
| 2026-04-25 21:11 | 34.35663 | -105.56121 | 27762 ft | 413 kts | 275° |
| 2026-04-25 21:11 | 34.35972 | -105.59582 | 27752 ft | 413 kts | 275° |
| 2026-04-25 21:11 | 34.36280 | -105.63047 | 27750 ft | 414 kts | 275° |
| 2026-04-25 21:12 | 34.36588 | -105.66527 | 27750 ft | 415 kts | 275° |
| 2026-04-25 21:12 | 34.36819 | -105.70003 | 27752 ft | 415 kts | 272° |
| 2026-04-25 21:12 | 34.36946 | -105.73498 | 27758 ft | 415 kts | 271° |
| 2026-04-25 21:12 | 34.37008 | -105.75811 | 27752 ft | 415 kts | 271° |
| 2026-04-25 21:13 | 34.37121 | -105.80491 | 27757 ft | 415 kts | 271° |
| 2026-04-25 21:13 | 34.37207 | -105.83987 | 27756 ft | 415 kts | 271° |
| 2026-04-25 21:13 | 34.37297 | -105.87486 | 27763 ft | 415 kts | 271° |
| 2026-04-25 21:13 | 34.37391 | -105.90981 | 27759 ft | 416 kts | 271° |
| 2026-04-25 21:14 | 34.37534 | -105.96138 | 27754 ft | 416 kts | 271° |
| 2026-04-25 21:14 | 34.37731 | -106.03145 | 27738 ft | 416 kts | 271° |
| 2026-04-25 21:14 | 34.37924 | -106.10143 | 27760 ft | 416 kts | 271° |
| 2026-04-25 21:14 | 34.38184 | -106.19833 | 27760 ft | 416 kts | 271° |
| 2026-04-25 21:15 | 34.38548 | -106.33898 | 27761 ft | 417 kts | 271° |
| 2026-04-25 21:15 | 34.38896 | -106.47969 | 27755 ft | 420 kts | 270° |
| 2026-04-25 21:15 | 34.39034 | -106.53775 | 28103 ft | 422 kts | 270° |
| 2026-04-25 21:15 | 34.39117 | -106.57308 | 28667 ft | 417 kts | 270° |
| 2026-04-25 21:16 | 34.39198 | -106.60795 | 29297 ft | 411 kts | 270° |
| 2026-04-25 21:16 | 34.39277 | -106.64236 | 29888 ft | 406 kts | 270° |
| 2026-04-25 21:16 | 34.39355 | -106.67629 | 30385 ft | 401 kts | 270° |
| 2026-04-25 21:16 | 34.39429 | -106.70950 | 30902 ft | 396 kts | 270° |
| 2026-04-25 21:17 | 34.39503 | -106.74259 | 31493 ft | 388 kts | 270° |
| 2026-04-25 21:17 | 34.39673 | -106.82088 | 31620 ft | 394 kts | 270° |
| 2026-04-25 21:17 | 34.40216 | -107.08347 | 31751 ft | 397 kts | 270° |
| 2026-04-25 21:17 | 34.40715 | -107.34973 | 31687 ft | 393 kts | 270° |
| 2026-04-25 21:18 | 34.41471 | -107.87402 | 31706 ft | 383 kts | 269° |
| 2026-04-25 21:18 | 34.42045 | -108.38572 | 31791 ft | 379 kts | 269° |
| 2026-04-25 21:19 | 34.42354 | -108.90436 | 31820 ft | 393 kts | 268° |
| 2026-04-25 21:19 | 34.41532 | -109.43487 | 31845 ft | 394 kts | 265° |
| 2026-04-25 21:20 | 34.39568 | -109.87649 | 32005 ft | 394 kts | 265° |
| 2026-04-25 21:20 | 34.38426 | -110.15850 | 32006 ft | 385 kts | 265° |
| 2026-04-25 21:21 | 34.38121 | -110.22342 | 32010 ft | 387 kts | 265° |
| 2026-04-25 21:21 | 34.37826 | -110.28865 | 31976 ft | 389 kts | 265° |
| 2026-04-25 21:22 | 34.37532 | -110.35413 | 31939 ft | 390 kts | 265° |
| 2026-04-25 21:22 | 34.37235 | -110.41981 | 31904 ft | 391 kts | 265° |
| 2026-04-25 21:23 | 34.36932 | -110.48551 | 31873 ft | 391 kts | 265° |
| 2026-04-25 21:23 | 34.36613 | -110.55129 | 31852 ft | 391 kts | 265° |
| 2026-04-25 21:24 | 34.36289 | -110.61691 | 31858 ft | 390 kts | 264° |
| 2026-04-25 21:24 | 34.35967 | -110.68204 | 31851 ft | 390 kts | 264° |
| 2026-04-25 21:25 | 34.35640 | -110.74747 | 31870 ft | 388 kts | 264° |
| 2026-04-25 21:25 | 34.35312 | -110.81275 | 31882 ft | 388 kts | 264° |
| 2026-04-25 21:26 | 34.34995 | -110.87793 | 31875 ft | 388 kts | 264° |
| 2026-04-25 21:26 | 34.34680 | -110.94303 | 31881 ft | 387 kts | 264° |
| 2026-04-25 21:27 | 34.33897 | -111.10079 | 31967 ft | 387 kts | 264° |
| 2026-04-25 21:27 | 34.34076 | -111.36040 | 32024 ft | 400 kts | 284° |
| 2026-04-25 21:28 | 34.42512 | -111.61195 | 31859 ft | 403 kts | 285° |
| 2026-04-25 21:28 | 34.50634 | -111.86349 | 31871 ft | 404 kts | 285° |
| 2026-04-25 21:29 | 34.58798 | -112.11785 | 31881 ft | 405 kts | 284° |
| 2026-04-25 21:29 | 34.66920 | -112.37308 | 31975 ft | 405 kts | 284° |
| 2026-04-25 21:30 | 34.69927 | -112.50305 | 31791 ft | 392 kts | 268° |
| 2026-04-25 21:30 | 34.68456 | -112.63244 | 31821 ft | 387 kts | 259° |
| 2026-04-25 21:30 | 34.65931 | -112.84869 | 31807 ft | 389 kts | 259° |
| 2026-04-25 21:31 | 34.62260 | -113.15199 | 31798 ft | 391 kts | 259° |
| 2026-04-25 21:31 | 34.59020 | -113.41433 | 31769 ft | 393 kts | 259° |
| 2026-04-25 21:32 | 34.53719 | -113.85708 | 31778 ft | 394 kts | 260° |
| 2026-04-25 21:32 | 34.45768 | -114.34821 | 31816 ft | 392 kts | 251° |
| 2026-04-25 21:33 | 34.39954 | -114.60125 | 31741 ft | 392 kts | 254° |
| 2026-04-25 21:33 | 34.34430 | -114.85675 | 31749 ft | 392 kts | 253° |
| 2026-04-25 21:34 | 34.31897 | -114.97260 | 31756 ft | 392 kts | 253° |
| 2026-04-25 21:34 | 34.30502 | -115.03612 | 31767 ft | 392 kts | 253° |
| 2026-04-25 21:35 | 34.29098 | -115.09994 | 31757 ft | 392 kts | 253° |
| 2026-04-25 21:35 | 34.27695 | -115.16360 | 31762 ft | 391 kts | 253° |
| 2026-04-25 21:36 | 34.26295 | -115.22700 | 31761 ft | 390 kts | 253° |
| 2026-04-25 21:36 | 34.24937 | -115.29046 | 31772 ft | 390 kts | 254° |
| 2026-04-25 21:37 | 34.24046 | -115.33250 | 31764 ft | 390 kts | 253° |
| 2026-04-25 21:37 | 34.22247 | -115.41696 | 31772 ft | 389 kts | 253° |
| 2026-04-25 21:38 | 34.20894 | -115.48013 | 31760 ft | 388 kts | 253° |
| 2026-04-25 21:38 | 34.19538 | -115.54326 | 31787 ft | 388 kts | 253° |
| 2026-04-25 21:39 | 34.18172 | -115.60668 | 31775 ft | 389 kts | 253° |
| 2026-04-25 21:39 | 34.16814 | -115.66952 | 31799 ft | 389 kts | 253° |
| 2026-04-25 21:40 | 34.15801 | -115.73390 | 31796 ft | 392 kts | 260° |
| 2026-04-25 21:40 | 34.15349 | -115.78856 | 31814 ft | 393 kts | 261° |
| 2026-04-25 21:41 | 34.14786 | -115.85429 | 31826 ft | 393 kts | 260° |
| 2026-04-25 21:41 | 34.14161 | -115.91990 | 31852 ft | 393 kts | 260° |
| 2026-04-25 21:42 | 34.13518 | -115.98545 | 31868 ft | 393 kts | 259° |
| 2026-04-25 21:42 | 34.12879 | -116.05054 | 31879 ft | 393 kts | 260° |
| 2026-04-25 21:43 | 34.12236 | -116.11602 | 31875 ft | 392 kts | 259° |
| 2026-04-25 21:43 | 34.11591 | -116.18140 | 31875 ft | 391 kts | 259° |
| 2026-04-25 21:44 | 34.10944 | -116.24660 | 31874 ft | 391 kts | 259° |
| 2026-04-25 21:45 | 34.09951 | -116.34407 | 31803 ft | 390 kts | 259° |
| 2026-04-25 21:45 | 34.09245 | -116.40944 | 31237 ft | 395 kts | 259° |
| 2026-04-25 21:45 | 34.08893 | -116.44216 | 30572 ft | 393 kts | 259° |
| 2026-04-25 21:46 | 34.08542 | -116.47474 | 30293 ft | 391 kts | 259° |
| 2026-04-25 21:46 | 34.08198 | -116.50687 | 30167 ft | 379 kts | 259° |
| 2026-04-25 21:46 | 34.07865 | -116.53792 | 30030 ft | 366 kts | 259° |
| 2026-04-25 21:46 | 34.07544 | -116.56769 | 29883 ft | 353 kts | 259° |
| 2026-04-25 21:47 | 34.07236 | -116.59644 | 29844 ft | 338 kts | 259° |
| 2026-04-25 21:47 | 34.06971 | -116.62420 | 29826 ft | 327 kts | 259° |
| 2026-04-25 21:47 | 34.06720 | -116.65157 | 29862 ft | 331 kts | 259° |
| 2026-04-25 21:48 | 34.06229 | -116.70553 | 29566 ft | 320 kts | 259° |
| 2026-04-25 21:48 | 34.05990 | -116.73221 | 29184 ft | 323 kts | 259° |
| 2026-04-25 21:48 | 34.05730 | -116.75963 | 28514 ft | 337 kts | 259° |
| 2026-04-25 21:48 | 34.05449 | -116.78880 | 27368 ft | 362 kts | 259° |
| 2026-04-25 21:49 | 34.05158 | -116.81958 | 26816 ft | 370 kts | 259° |
| 2026-04-25 21:49 | 34.04872 | -116.85027 | 26632 ft | 368 kts | 260° |
| 2026-04-25 21:49 | 34.04584 | -116.88105 | 26492 ft | 366 kts | 259° |
| 2026-04-25 21:49 | 34.04264 | -116.91125 | 26297 ft | 363 kts | 257° |
| 2026-04-25 21:50 | 34.03866 | -116.94122 | 26084 ft | 361 kts | 257° |
| 2026-04-25 21:50 | 34.03462 | -116.97078 | 25856 ft | 361 kts | 257° |
| 2026-04-25 21:50 | 34.03064 | -117.00062 | 25657 ft | 360 kts | 257° |
| 2026-04-25 21:50 | 34.02799 | -117.02077 | 25516 ft | 359 kts | 257° |
| 2026-04-25 21:51 | 34.02306 | -117.06015 | 25241 ft | 359 kts | 258° |
| 2026-04-25 21:51 | 34.01956 | -117.09001 | 25060 ft | 362 kts | 258° |
| 2026-04-25 21:51 | 34.01606 | -117.12005 | 25050 ft | 358 kts | 258° |
| 2026-04-25 21:51 | 34.01260 | -117.14967 | 24968 ft | 354 kts | 258° |
| 2026-04-25 21:52 | 34.00912 | -117.17912 | 24734 ft | 355 kts | 257° |
| 2026-04-25 21:52 | 34.00564 | -117.20826 | 24551 ft | 354 kts | 257° |
| 2026-04-25 21:52 | 34.00214 | -117.23750 | 24380 ft | 352 kts | 257° |
| 2026-04-25 21:52 | 33.99867 | -117.26658 | 24338 ft | 348 kts | 257° |
| 2026-04-25 21:53 | 33.99521 | -117.29540 | 24286 ft | 345 kts | 257° |
| 2026-04-25 21:53 | 33.99182 | -117.32380 | 24255 ft | 341 kts | 257° |
| 2026-04-25 21:53 | 33.98849 | -117.35214 | 24169 ft | 338 kts | 257° |
| 2026-04-25 21:53 | 33.98532 | -117.37942 | 24069 ft | 321 kts | 257° |
| 2026-04-25 21:54 | 33.98016 | -117.40460 | 23819 ft | 301 kts | 239° |
| 2026-04-25 21:54 | 33.96686 | -117.42344 | 23240 ft | 297 kts | 218° |
| 2026-04-25 21:54 | 33.94940 | -117.43684 | 22577 ft | 298 kts | 213° |
| 2026-04-25 21:54 | 33.93104 | -117.44862 | 21940 ft | 300 kts | 205° |
| 2026-04-25 21:55 | 33.91002 | -117.45200 | 21275 ft | 316 kts | 178° |
| 2026-04-25 21:55 | 33.88945 | -117.44220 | 20697 ft | 335 kts | 151° |
| 2026-04-25 21:55 | 33.87377 | -117.42072 | 20122 ft | 355 kts | 124° |
| 2026-04-25 21:55 | 33.86703 | -117.39157 | 19535 ft | 371 kts | 97° |
| 2026-04-25 21:56 | 33.86932 | -117.36040 | 19011 ft | 374 kts | 84° |
| 2026-04-25 21:56 | 33.87253 | -117.34006 | 18708 ft | 375 kts | 82° |
| 2026-04-25 21:56 | 33.87969 | -117.29904 | 18275 ft | 371 kts | 81° |
| 2026-04-25 21:56 | 33.88507 | -117.26897 | 17835 ft | 365 kts | 81° |
| 2026-04-25 21:57 | 33.89044 | -117.23918 | 17210 ft | 364 kts | 81° |
| 2026-04-25 21:57 | 33.89584 | -117.20947 | 16618 ft | 363 kts | 81° |
| 2026-04-25 21:57 | 33.90119 | -117.18018 | 16080 ft | 361 kts | 81° |
| 2026-04-25 21:57 | 33.90664 | -117.15044 | 15579 ft | 358 kts | 81° |
| 2026-04-25 21:58 | 33.91200 | -117.12113 | 15074 ft | 357 kts | 81° |
| 2026-04-25 21:58 | 33.91818 | -117.09271 | 14557 ft | 359 kts | 68° |
| 2026-04-25 21:58 | 33.93279 | -117.06856 | 13992 ft | 358 kts | 36° |
| 2026-04-25 21:58 | 33.95463 | -117.05565 | 13507 ft | 347 kts | 4° |
| 2026-04-25 21:59 | 33.97758 | -117.05699 | 13234 ft | 319 kts | 332° |
| 2026-04-25 21:59 | 33.99509 | -117.07067 | 12958 ft | 290 kts | 300° |
| 2026-04-25 21:59 | 34.00361 | -117.09193 | 12929 ft | 280 kts | 278° |
| 2026-04-25 22:00 | 34.00792 | -117.13744 | 12914 ft | 268 kts | 265° |
| 2026-04-25 22:00 | 34.00746 | -117.15993 | 12923 ft | 267 kts | 262° |
| 2026-04-25 22:00 | 34.00618 | -117.18233 | 12924 ft | 268 kts | 261° |
| 2026-04-25 22:00 | 34.00441 | -117.20469 | 12968 ft | 268 kts | 260° |
| 2026-04-25 22:01 | 34.00236 | -117.22676 | 12971 ft | 269 kts | 259° |
| 2026-04-25 22:01 | 34.00007 | -117.24914 | 12973 ft | 270 kts | 258° |
| 2026-04-25 22:01 | 33.99763 | -117.27167 | 12955 ft | 273 kts | 258° |
| 2026-04-25 22:01 | 33.99596 | -117.28669 | 12966 ft | 272 kts | 258° |
| 2026-04-25 22:02 | 33.99253 | -117.31693 | 12975 ft | 274 kts | 258° |
| 2026-04-25 22:02 | 33.98983 | -117.34018 | 12961 ft | 280 kts | 258° |
| 2026-04-25 22:02 | 33.98717 | -117.36316 | 12954 ft | 273 kts | 258° |
| 2026-04-25 22:02 | 33.98456 | -117.38558 | 12949 ft | 268 kts | 258° |
| 2026-04-25 22:03 | 33.98196 | -117.40774 | 12960 ft | 267 kts | 258° |
| 2026-04-25 22:03 | 33.97934 | -117.42995 | 12952 ft | 268 kts | 258° |
| 2026-04-25 22:03 | 33.97671 | -117.45214 | 12968 ft | 267 kts | 257° |
| 2026-04-25 22:03 | 33.97412 | -117.47401 | 12958 ft | 267 kts | 258° |
| 2026-04-25 22:04 | 33.97351 | -117.49655 | 12957 ft | 275 kts | 273° |
| 2026-04-25 22:04 | 33.97740 | -117.51921 | 12954 ft | 278 kts | 276° |
| 2026-04-25 22:04 | 33.98162 | -117.54200 | 12850 ft | 276 kts | 276° |
| 2026-04-25 22:04 | 33.98575 | -117.56440 | 12540 ft | 274 kts | 276° |
| 2026-04-25 22:05 | 33.98983 | -117.58691 | 12072 ft | 276 kts | 276° |
| 2026-04-25 22:05 | 33.99391 | -117.60972 | 11657 ft | 278 kts | 277° |
| 2026-04-25 22:05 | 33.99794 | -117.63241 | 11314 ft | 277 kts | 277° |
| 2026-04-25 22:05 | 34.00195 | -117.65508 | 10993 ft | 276 kts | 277° |
| 2026-04-25 22:06 | 34.00586 | -117.67771 | 10680 ft | 274 kts | 275° |
| 2026-04-25 22:06 | 34.00590 | -117.70043 | 10294 ft | 270 kts | 260° |
| 2026-04-25 22:06 | 34.00337 | -117.72288 | 9948 ft | 270 kts | 260° |
| 2026-04-25 22:06 | 34.00099 | -117.74540 | 9565 ft | 271 kts | 261° |
| 2026-04-25 22:07 | 33.99870 | -117.76760 | 9226 ft | 268 kts | 261° |
| 2026-04-25 22:07 | 33.99725 | -117.78218 | 9116 ft | 260 kts | 261° |
| 2026-04-25 22:07 | 33.99443 | -117.81064 | 8600 ft | 255 kts | 261° |
| 2026-04-25 22:07 | 33.99236 | -117.83167 | 8341 ft | 246 kts | 261° |
| 2026-04-25 22:08 | 33.99041 | -117.85183 | 7848 ft | 244 kts | 261° |
| 2026-04-25 22:08 | 33.98842 | -117.87217 | 7417 ft | 245 kts | 262° |
| 2026-04-25 22:08 | 33.98641 | -117.89278 | 7091 ft | 244 kts | 262° |
| 2026-04-25 22:08 | 33.98446 | -117.91269 | 7054 ft | 241 kts | 262° |
| 2026-04-25 22:09 | 33.98253 | -117.93234 | 6980 ft | 228 kts | 262° |
| 2026-04-25 22:09 | 33.98071 | -117.95084 | 6680 ft | 220 kts | 262° |
| 2026-04-25 22:09 | 33.97893 | -117.96893 | 6496 ft | 206 kts | 262° |
| 2026-04-25 22:09 | 33.97730 | -117.98543 | 6367 ft | 193 kts | 262° |
| 2026-04-25 22:10 | 33.97570 | -118.00167 | 5881 ft | 198 kts | 262° |
| 2026-04-25 22:10 | 33.97404 | -118.01827 | 5468 ft | 199 kts | 262° |
| 2026-04-25 22:10 | 33.97243 | -118.03452 | 5081 ft | 198 kts | 262° |
| 2026-04-25 22:10 | 33.97079 | -118.05101 | 5019 ft | 198 kts | 262° |
| 2026-04-25 22:11 | 33.96914 | -118.06758 | 4999 ft | 198 kts | 261° |
| 2026-04-25 22:11 | 33.96749 | -118.08417 | 4986 ft | 202 kts | 261° |
| 2026-04-25 22:11 | 33.96584 | -118.10085 | 4884 ft | 198 kts | 260° |
| 2026-04-25 22:11 | 33.96422 | -118.11716 | 4562 ft | 194 kts | 260° |
| 2026-04-25 22:12 | 33.96267 | -118.13273 | 4387 ft | 180 kts | 259° |
| 2026-04-25 22:12 | 33.96122 | -118.14732 | 4170 ft | 168 kts | 260° |
| 2026-04-25 22:12 | 33.95983 | -118.16117 | 3785 ft | 167 kts | 261° |
| 2026-04-25 22:12 | 33.95892 | -118.17035 | 3498 ft | 165 kts | 261° |
| 2026-04-25 22:13 | 33.95729 | -118.18834 | 3310 ft | 169 kts | 259° |
| 2026-04-25 22:13 | 33.95592 | -118.20214 | 3111 ft | 163 kts | 260° |
| 2026-04-25 22:13 | 33.95454 | -118.21558 | 2890 ft | 164 kts | 260° |
| 2026-04-25 22:13 | 33.95313 | -118.22919 | 2668 ft | 163 kts | 261° |
| 2026-04-25 22:14 | 33.95173 | -118.24284 | 2449 ft | 166 kts | 261° |
| 2026-04-25 22:14 | 33.95032 | -118.25654 | 2216 ft | 161 kts | 258° |
| 2026-04-25 22:14 | 33.94896 | -118.26970 | 1999 ft | 158 kts | 259° |
| 2026-04-25 22:14 | 33.94763 | -118.28259 | 1783 ft | 153 kts | 259° |
| 2026-04-25 22:15 | 33.94633 | -118.29515 | 1591 ft | 154 kts | 259° |
| 2026-04-25 22:15 | 33.94503 | -118.30788 | 1395 ft | 152 kts | 260° |
| 2026-04-25 22:15 | 33.94374 | -118.32052 | 1189 ft | 151 kts | 258° |
| 2026-04-25 22:16 | 33.94126 | -118.34455 | 793 ft | 142 kts | 259° |
| 2026-04-25 22:16 | 33.94006 | -118.35628 | 595 ft | 145 kts | 261° |
| 2026-04-25 22:16 | 33.93883 | -118.36843 | 396 ft | 137 kts | 261° |
| 2026-04-25 22:16 | 33.93766 | -118.37981 | 205 ft | 137 kts | 259° |
| 2026-04-25 22:17 | 33.93651 | -118.39090 | 121 ft | 124 kts | 258° |
| 2026-04-25 22:17 | 33.93565 | -118.39877 | 121 ft | 67 kts | 263° |
| 2026-04-25 22:17 | 33.93529 | -118.40267 | 125 ft | 40 kts | 269° |
| 2026-04-25 22:17 | 33.93534 | -118.40380 | 121 ft | 2 kts | 274° |
| 2026-04-25 22:18 | 33.93542 | -118.40463 | 123 ft | 17 kts | 282° |
| 2026-04-25 22:18 | 33.93581 | -118.40600 | 125 ft | 17 kts | 289° |
| 2026-04-25 22:18 | 33.93594 | -118.40738 | 125 ft | 16 kts | 268° |
| 2026-04-25 22:18 | 33.93622 | -118.40866 | 120 ft | 16 kts | 309° |
| 2026-04-25 22:19 | 33.93709 | -118.40903 | 124 ft | 9 kts | 352° |
| 2026-04-25 22:19 | 33.93732 | -118.40906 | 122 ft | 3 kts | 352° |
| 2026-04-25 22:19 | 33.93767 | -118.40911 | 124 ft | 3 kts | 353° |
| 2026-04-25 22:19 | 33.93782 | -118.40913 | 124 ft | 0 kts | 354° |
| 2026-04-25 22:20 | 33.93806 | -118.40916 | 123 ft | 8 kts | 353° |
| 2026-04-25 22:20 | 33.93860 | -118.40910 | 122 ft | 8 kts | 33° |
| 2026-04-25 22:21 | 33.93874 | -118.40846 | 125 ft | 8 kts | 85° |
| 2026-04-25 22:21 | 33.93881 | -118.40780 | 125 ft | 8 kts | 82° |
| 2026-04-25 22:21 | 33.93887 | -118.40717 | 124 ft | 8 kts | 83° |
| 2026-04-25 22:21 | 33.93894 | -118.40655 | 125 ft | 8 kts | 82° |
| 2026-04-25 22:22 | 33.93903 | -118.40572 | 125 ft | 13 kts | 83° |
| 2026-04-25 22:22 | 33.93915 | -118.40452 | 125 ft | 16 kts | 83° |
| 2026-04-25 22:22 | 33.93928 | -118.40320 | 122 ft | 17 kts | 83° |
| 2026-04-25 22:22 | 33.93943 | -118.40172 | 124 ft | 18 kts | 83° |
| 2026-04-25 22:23 | 33.93976 | -118.40066 | 122 ft | 10 kts | 25° |
| 2026-04-25 22:23 | 33.94043 | -118.40069 | 122 ft | 10 kts | 349° |
| 2026-04-25 22:23 | 33.94090 | -118.40077 | 123 ft | 6 kts | 352° |
| 2026-04-25 22:23 | 33.94131 | -118.40083 | 122 ft | 6 kts | 353° |
| 2026-04-25 22:24 | 33.94173 | -118.40089 | 122 ft | 6 kts | 351° |
| 2026-04-25 22:24 | 33.94213 | -118.40096 | 124 ft | 6 kts | 353° |
| 2026-04-25 22:24 | 33.94235 | -118.40087 | 121 ft | 2 kts | 54° |
| 2026-04-25 22:24 | 33.94238 | -118.40072 | 125 ft | 2 kts | 92° |
| 2026-04-25 22:25 | 33.94237 | -118.40056 | 125 ft | 2 kts | 92° |
| 2026-04-25 22:25 | 33.94237 | -118.40048 | 125 ft | 1 kts | 88° |
| 2026-04-25 22:25 | 33.94237 | -118.40043 | 125 ft | 0 kts | 89° |
| 2026-04-25 22:25 | 33.94237 | -118.40042 | 125 ft | 0 kts | 89° |
| 2026-04-25 22:26 | 33.94237 | -118.40041 | 125 ft | 0 kts | 89° |